sensor_id;sensor_type;location;lat;lon;timestamp;P1;durP1;ratioP1;P2;durP2;ratioP2
18302;SDS011;9277;37.980;23.748;2024-03-02T00:00:24;13.68;;;5.97;;
18302;SDS011;9277;37.980;23.748;2024-03-02T00:02:52;9.77;;;6.40;;
18302;SDS011;9277;37.980;23.748;2024-03-02T00:05:19;11.73;;;7.00;;
18302;SDS011;9277;37.980;23.748;2024-03-02T00:07:47;14.15;;;7.80;;
18302;SDS011;9277;37.980;23.748;2024-03-02T00:10:20;19.48;;;8.60;;
18302;SDS011;9277;37.980;23.748;2024-03-02T00:12:50;17.73;;;9.77;;
18302;SDS011;9277;37.980;23.748;2024-03-02T00:15:24;19.48;;;9.60;;
18302;SDS011;9277;37.980;23.748;2024-03-02T00:17:57;21.63;;;9.88;;
18302;SDS011;9277;37.980;23.748;2024-03-02T00:20:24;20.45;;;8.85;;
18302;SDS011;9277;37.980;23.748;2024-03-02T00:22:52;18.75;;;7.88;;
18302;SDS011;9277;37.980;23.748;2024-03-02T00:25:21;15.75;;;7.63;;
18302;SDS011;9277;37.980;23.748;2024-03-02T00:27:48;12.30;;;6.55;;
18302;SDS011;9277;37.980;23.748;2024-03-02T00:30:37;13.15;;;6.78;;
18302;SDS011;9277;37.980;23.748;2024-03-02T00:33:04;12.43;;;6.00;;
18302;SDS011;9277;37.980;23.748;2024-03-02T00:35:32;12.05;;;5.70;;
18302;SDS011;9277;37.980;23.748;2024-03-02T00:38:01;11.10;;;5.57;;
18302;SDS011;9277;37.980;23.748;2024-03-02T00:40:32;15.98;;;5.38;;
18302;SDS011;9277;37.980;23.748;2024-03-02T00:42:59;12.00;;;5.13;;
18302;SDS011;9277;37.980;23.748;2024-03-02T00:45:26;9.85;;;4.55;;
18302;SDS011;9277;37.980;23.748;2024-03-02T00:47:53;14.57;;;5.55;;
18302;SDS011;9277;37.980;23.748;2024-03-02T00:50:20;10.18;;;5.57;;
18302;SDS011;9277;37.980;23.748;2024-03-02T00:52:46;17.25;;;6.85;;
18302;SDS011;9277;37.980;23.748;2024-03-02T00:55:14;17.75;;;7.93;;
18302;SDS011;9277;37.980;23.748;2024-03-02T00:57:41;15.73;;;8.50;;
18302;SDS011;9277;37.980;23.748;2024-03-02T01:00:09;13.75;;;7.75;;
18302;SDS011;9277;37.980;23.748;2024-03-02T01:02:40;17.83;;;8.80;;
18302;SDS011;9277;37.980;23.748;2024-03-02T01:05:07;18.23;;;9.23;;
18302;SDS011;9277;37.980;23.748;2024-03-02T01:07:34;13.77;;;7.22;;
18302;SDS011;9277;37.980;23.748;2024-03-02T01:10:01;13.02;;;7.72;;
18302;SDS011;9277;37.980;23.748;2024-03-02T01:12:28;9.65;;;5.60;;
18302;SDS011;9277;37.980;23.748;2024-03-02T01:14:57;11.95;;;5.72;;
18302;SDS011;9277;37.980;23.748;2024-03-02T01:17:23;12.82;;;5.80;;
18302;SDS011;9277;37.980;23.748;2024-03-02T01:19:50;15.93;;;6.43;;
18302;SDS011;9277;37.980;23.748;2024-03-02T01:22:17;13.48;;;6.47;;
18302;SDS011;9277;37.980;23.748;2024-03-02T01:24:50;18.13;;;6.97;;
18302;SDS011;9277;37.980;23.748;2024-03-02T01:27:16;16.98;;;7.43;;
18302;SDS011;9277;37.980;23.748;2024-03-02T01:29:44;15.18;;;7.97;;
18302;SDS011;9277;37.980;23.748;2024-03-02T01:32:12;13.30;;;8.13;;
18302;SDS011;9277;37.980;23.748;2024-03-02T01:34:38;17.13;;;8.35;;
18302;SDS011;9277;37.980;23.748;2024-03-02T01:37:05;13.05;;;7.45;;
18302;SDS011;9277;37.980;23.748;2024-03-02T01:39:32;15.02;;;7.72;;
18302;SDS011;9277;37.980;23.748;2024-03-02T01:41:58;20.95;;;7.32;;
18302;SDS011;9277;37.980;23.748;2024-03-02T01:44:25;12.60;;;6.72;;
18302;SDS011;9277;37.980;23.748;2024-03-02T01:46:52;15.18;;;6.03;;
18302;SDS011;9277;37.980;23.748;2024-03-02T01:49:20;13.82;;;6.00;;
18302;SDS011;9277;37.980;23.748;2024-03-02T01:51:47;8.48;;;5.00;;
18302;SDS011;9277;37.980;23.748;2024-03-02T01:54:13;9.13;;;4.25;;
18302;SDS011;9277;37.980;23.748;2024-03-02T01:56:40;8.23;;;4.28;;
18302;SDS011;9277;37.980;23.748;2024-03-02T01:59:07;5.78;;;3.65;;
18302;SDS011;9277;37.980;23.748;2024-03-02T02:01:33;7.88;;;3.05;;
18302;SDS011;9277;37.980;23.748;2024-03-02T02:04:00;11.02;;;2.65;;
18302;SDS011;9277;37.980;23.748;2024-03-02T02:06:28;5.13;;;2.60;;
18302;SDS011;9277;37.980;23.748;2024-03-02T02:08:55;4.45;;;3.17;;
18302;SDS011;9277;37.980;23.748;2024-03-02T02:11:22;7.93;;;3.72;;
18302;SDS011;9277;37.980;23.748;2024-03-02T02:13:49;12.35;;;4.13;;
18302;SDS011;9277;37.980;23.748;2024-03-02T02:16:16;7.47;;;4.28;;
18302;SDS011;9277;37.980;23.748;2024-03-02T02:18:42;6.72;;;4.22;;
18302;SDS011;9277;37.980;23.748;2024-03-02T02:21:09;10.52;;;5.03;;
18302;SDS011;9277;37.980;23.748;2024-03-02T02:23:37;8.25;;;4.43;;
18302;SDS011;9277;37.980;23.748;2024-03-02T02:26:04;14.70;;;5.82;;
18302;SDS011;9277;37.980;23.748;2024-03-02T02:28:30;13.20;;;5.53;;
18302;SDS011;9277;37.980;23.748;2024-03-02T02:30:57;9.93;;;5.25;;
18302;SDS011;9277;37.980;23.748;2024-03-02T02:33:25;8.10;;;5.10;;
18302;SDS011;9277;37.980;23.748;2024-03-02T02:35:52;10.15;;;5.60;;
18302;SDS011;9277;37.980;23.748;2024-03-02T02:38:18;7.43;;;4.53;;
18302;SDS011;9277;37.980;23.748;2024-03-02T02:40:47;9.93;;;5.60;;
18302;SDS011;9277;37.980;23.748;2024-03-02T02:43:13;13.40;;;5.63;;
18302;SDS011;9277;37.980;23.748;2024-03-02T02:45:40;10.32;;;5.07;;
18302;SDS011;9277;37.980;23.748;2024-03-02T02:48:07;9.30;;;5.57;;
18302;SDS011;9277;37.980;23.748;2024-03-02T02:50:33;11.70;;;5.80;;
18302;SDS011;9277;37.980;23.748;2024-03-02T02:53:00;11.05;;;5.90;;
18302;SDS011;9277;37.980;23.748;2024-03-02T02:55:27;10.93;;;5.32;;
18302;SDS011;9277;37.980;23.748;2024-03-02T02:57:55;11.00;;;4.35;;
18302;SDS011;9277;37.980;23.748;2024-03-02T03:00:21;7.43;;;3.50;;
18302;SDS011;9277;37.980;23.748;2024-03-02T03:02:48;6.13;;;3.30;;
18302;SDS011;9277;37.980;23.748;2024-03-02T03:05:15;5.00;;;3.20;;
18302;SDS011;9277;37.980;23.748;2024-03-02T03:07:42;9.55;;;3.25;;
18302;SDS011;9277;37.980;23.748;2024-03-02T03:10:09;12.25;;;3.15;;
18302;SDS011;9277;37.980;23.748;2024-03-02T03:12:36;8.05;;;3.08;;
18302;SDS011;9277;37.980;23.748;2024-03-02T03:15:04;5.05;;;2.63;;
18302;SDS011;9277;37.980;23.748;2024-03-02T03:17:32;3.22;;;2.30;;
18302;SDS011;9277;37.980;23.748;2024-03-02T03:19:58;5.80;;;2.60;;
18302;SDS011;9277;37.980;23.748;2024-03-02T03:22:26;3.80;;;2.80;;
18302;SDS011;9277;37.980;23.748;2024-03-02T03:24:52;5.00;;;2.90;;
18302;SDS011;9277;37.980;23.748;2024-03-02T03:27:19;11.55;;;2.72;;
18302;SDS011;9277;37.980;23.748;2024-03-02T03:29:46;4.13;;;2.70;;
18302;SDS011;9277;37.980;23.748;2024-03-02T03:32:14;5.38;;;2.33;;
18302;SDS011;9277;37.980;23.748;2024-03-02T03:34:42;6.22;;;2.65;;
18302;SDS011;9277;37.980;23.748;2024-03-02T03:37:08;8.35;;;2.55;;
18302;SDS011;9277;37.980;23.748;2024-03-02T03:39:36;5.88;;;2.60;;
18302;SDS011;9277;37.980;23.748;2024-03-02T03:42:01;5.57;;;2.72;;
18302;SDS011;9277;37.980;23.748;2024-03-02T03:44:28;5.30;;;3.15;;
18302;SDS011;9277;37.980;23.748;2024-03-02T03:46:55;7.63;;;2.80;;
18302;SDS011;9277;37.980;23.748;2024-03-02T03:49:23;6.88;;;3.25;;
18302;SDS011;9277;37.980;23.748;2024-03-02T03:51:50;6.68;;;3.25;;
18302;SDS011;9277;37.980;23.748;2024-03-02T03:54:17;6.82;;;3.35;;
18302;SDS011;9277;37.980;23.748;2024-03-02T03:56:43;5.93;;;3.53;;
18302;SDS011;9277;37.980;23.748;2024-03-02T03:59:10;7.63;;;3.45;;
18302;SDS011;9277;37.980;23.748;2024-03-02T04:01:37;6.78;;;2.97;;
18302;SDS011;9277;37.980;23.748;2024-03-02T04:04:04;8.43;;;3.28;;
18302;SDS011;9277;37.980;23.748;2024-03-02T04:06:33;6.60;;;3.55;;
18302;SDS011;9277;37.980;23.748;2024-03-02T04:08:59;7.82;;;3.63;;
18302;SDS011;9277;37.980;23.748;2024-03-02T04:11:26;5.85;;;3.63;;
18302;SDS011;9277;37.980;23.748;2024-03-02T04:13:53;8.27;;;3.80;;
18302;SDS011;9277;37.980;23.748;2024-03-02T04:16:19;6.43;;;3.95;;
18302;SDS011;9277;37.980;23.748;2024-03-02T04:18:46;10.75;;;4.57;;
18302;SDS011;9277;37.980;23.748;2024-03-02T04:21:13;6.63;;;4.15;;
18302;SDS011;9277;37.980;23.748;2024-03-02T04:23:41;12.68;;;4.32;;
18302;SDS011;9277;37.980;23.748;2024-03-02T04:26:07;7.85;;;4.55;;
18302;SDS011;9277;37.980;23.748;2024-03-02T04:28:34;6.50;;;4.50;;
18302;SDS011;9277;37.980;23.748;2024-03-02T04:31:01;7.18;;;4.15;;
18302;SDS011;9277;37.980;23.748;2024-03-02T04:33:27;8.38;;;4.38;;
18302;SDS011;9277;37.980;23.748;2024-03-02T04:35:54;5.05;;;4.15;;
18302;SDS011;9277;37.980;23.748;2024-03-02T04:38:21;9.65;;;4.95;;
18302;SDS011;9277;37.980;23.748;2024-03-02T04:40:49;9.68;;;5.03;;
18302;SDS011;9277;37.980;23.748;2024-03-02T04:43:16;13.32;;;5.03;;
18302;SDS011;9277;37.980;23.748;2024-03-02T04:45:43;9.98;;;5.05;;
18302;SDS011;9277;37.980;23.748;2024-03-02T04:48:10;10.52;;;4.65;;
18302;SDS011;9277;37.980;23.748;2024-03-02T04:50:36;9.10;;;4.70;;
18302;SDS011;9277;37.980;23.748;2024-03-02T04:53:03;9.90;;;4.13;;
18302;SDS011;9277;37.980;23.748;2024-03-02T04:55:30;8.23;;;3.65;;
18302;SDS011;9277;37.980;23.748;2024-03-02T04:58:23;8.20;;;3.22;;
18302;SDS011;9277;37.980;23.748;2024-03-02T05:00:49;6.60;;;4.30;;
18302;SDS011;9277;37.980;23.748;2024-03-02T05:03:16;9.15;;;4.03;;
18302;SDS011;9277;37.980;23.748;2024-03-02T05:05:43;10.10;;;3.30;;
18302;SDS011;9277;37.980;23.748;2024-03-02T05:08:10;5.18;;;3.20;;
18302;SDS011;9277;37.980;23.748;2024-03-02T05:10:37;9.68;;;3.10;;
18302;SDS011;9277;37.980;23.748;2024-03-02T05:13:04;6.97;;;3.17;;
18302;SDS011;9277;37.980;23.748;2024-03-02T05:15:32;8.10;;;2.78;;
18302;SDS011;9277;37.980;23.748;2024-03-02T05:17:58;3.92;;;2.33;;
18302;SDS011;9277;37.980;23.748;2024-03-02T05:20:27;9.88;;;2.78;;
18302;SDS011;9277;37.980;23.748;2024-03-02T05:22:54;7.28;;;2.75;;
18302;SDS011;9277;37.980;23.748;2024-03-02T05:25:21;5.88;;;2.45;;
18302;SDS011;9277;37.980;23.748;2024-03-02T05:27:48;5.30;;;2.47;;
18302;SDS011;9277;37.980;23.748;2024-03-02T05:30:14;6.20;;;2.47;;
18302;SDS011;9277;37.980;23.748;2024-03-02T05:32:42;4.95;;;2.70;;
18302;SDS011;9277;37.980;23.748;2024-03-02T05:35:09;9.48;;;2.78;;
18302;SDS011;9277;37.980;23.748;2024-03-02T05:37:37;5.00;;;2.53;;
18302;SDS011;9277;37.980;23.748;2024-03-02T05:40:05;5.25;;;2.83;;
18302;SDS011;9277;37.980;23.748;2024-03-02T05:42:32;6.55;;;2.95;;
18302;SDS011;9277;37.980;23.748;2024-03-02T05:44:59;6.55;;;2.63;;
18302;SDS011;9277;37.980;23.748;2024-03-02T05:47:26;5.85;;;2.63;;
18302;SDS011;9277;37.980;23.748;2024-03-02T05:49:54;6.47;;;3.15;;
18302;SDS011;9277;37.980;23.748;2024-03-02T05:52:21;8.77;;;2.83;;
18302;SDS011;9277;37.980;23.748;2024-03-02T05:54:47;8.80;;;3.45;;
18302;SDS011;9277;37.980;23.748;2024-03-02T05:57:14;5.20;;;3.35;;
18302;SDS011;9277;37.980;23.748;2024-03-02T05:59:57;11.82;;;3.17;;
18302;SDS011;9277;37.980;23.748;2024-03-02T06:02:24;8.60;;;2.72;;
18302;SDS011;9277;37.980;23.748;2024-03-02T06:04:52;7.38;;;3.00;;
18302;SDS011;9277;37.980;23.748;2024-03-02T06:07:21;8.13;;;3.05;;
18302;SDS011;9277;37.980;23.748;2024-03-02T06:09:47;8.20;;;3.10;;
18302;SDS011;9277;37.980;23.748;2024-03-02T06:12:16;7.60;;;3.35;;
18302;SDS011;9277;37.980;23.748;2024-03-02T06:14:44;6.25;;;3.50;;
18302;SDS011;9277;37.980;23.748;2024-03-02T06:17:10;7.22;;;3.60;;
18302;SDS011;9277;37.980;23.748;2024-03-02T06:19:37;9.00;;;3.50;;
18302;SDS011;9277;37.980;23.748;2024-03-02T06:22:04;7.82;;;3.28;;
18302;SDS011;9277;37.980;23.748;2024-03-02T06:24:32;12.35;;;3.80;;
18302;SDS011;9277;37.980;23.748;2024-03-02T06:26:58;10.75;;;4.30;;
18302;SDS011;9277;37.980;23.748;2024-03-02T06:29:25;8.05;;;3.65;;
18302;SDS011;9277;37.980;23.748;2024-03-02T06:31:52;11.30;;;4.18;;
18302;SDS011;9277;37.980;23.748;2024-03-02T06:34:19;11.60;;;3.75;;
18302;SDS011;9277;37.980;23.748;2024-03-02T06:36:45;13.77;;;4.32;;
18302;SDS011;9277;37.980;23.748;2024-03-02T06:39:13;10.77;;;4.63;;
18302;SDS011;9277;37.980;23.748;2024-03-02T06:41:41;11.20;;;4.90;;
18302;SDS011;9277;37.980;23.748;2024-03-02T06:44:08;17.50;;;5.30;;
18302;SDS011;9277;37.980;23.748;2024-03-02T06:46:35;20.75;;;5.78;;
18302;SDS011;9277;37.980;23.748;2024-03-02T06:49:01;10.07;;;4.28;;
18302;SDS011;9277;37.980;23.748;2024-03-02T06:51:29;7.35;;;3.55;;
18302;SDS011;9277;37.980;23.748;2024-03-02T06:53:55;12.52;;;3.97;;
18302;SDS011;9277;37.980;23.748;2024-03-02T06:56:22;7.93;;;3.40;;
18302;SDS011;9277;37.980;23.748;2024-03-02T06:58:50;10.43;;;4.53;;
18302;SDS011;9277;37.980;23.748;2024-03-02T07:01:17;9.00;;;4.50;;
18302;SDS011;9277;37.980;23.748;2024-03-02T07:03:45;7.05;;;4.45;;
18302;SDS011;9277;37.980;23.748;2024-03-02T07:06:12;12.13;;;4.85;;
18302;SDS011;9277;37.980;23.748;2024-03-02T07:08:39;12.68;;;5.68;;
18302;SDS011;9277;37.980;23.748;2024-03-02T07:11:05;8.90;;;5.63;;
18302;SDS011;9277;37.980;23.748;2024-03-02T07:13:32;17.30;;;6.00;;
18302;SDS011;9277;37.980;23.748;2024-03-02T07:16:00;13.15;;;5.90;;
18302;SDS011;9277;37.980;23.748;2024-03-02T07:18:52;12.30;;;5.78;;
18302;SDS011;9277;37.980;23.748;2024-03-02T07:21:20;11.02;;;5.10;;
18302;SDS011;9277;37.980;23.748;2024-03-02T07:23:47;11.02;;;4.65;;
18302;SDS011;9277;37.980;23.748;2024-03-02T07:26:14;11.85;;;4.18;;
18302;SDS011;9277;37.980;23.748;2024-03-02T07:28:43;11.32;;;4.22;;
18302;SDS011;9277;37.980;23.748;2024-03-02T07:31:11;11.68;;;5.03;;
18302;SDS011;9277;37.980;23.748;2024-03-02T07:33:38;9.88;;;4.13;;
18302;SDS011;9277;37.980;23.748;2024-03-02T07:36:05;4.28;;;2.92;;
18302;SDS011;9277;37.980;23.748;2024-03-02T07:38:31;5.97;;;3.42;;
18302;SDS011;9277;37.980;23.748;2024-03-02T07:40:59;6.25;;;3.20;;
18302;SDS011;9277;37.980;23.748;2024-03-02T07:43:26;10.18;;;3.58;;
18302;SDS011;9277;37.980;23.748;2024-03-02T07:45:56;7.20;;;3.22;;
18302;SDS011;9277;37.980;23.748;2024-03-02T07:48:24;10.80;;;3.70;;
18302;SDS011;9277;37.980;23.748;2024-03-02T07:50:51;8.30;;;3.70;;
18302;SDS011;9277;37.980;23.748;2024-03-02T07:53:23;8.05;;;3.25;;
18302;SDS011;9277;37.980;23.748;2024-03-02T07:55:50;6.38;;;3.08;;
18302;SDS011;9277;37.980;23.748;2024-03-02T07:58:17;9.18;;;3.55;;
18302;SDS011;9277;37.980;23.748;2024-03-02T08:00:45;10.23;;;3.35;;
18302;SDS011;9277;37.980;23.748;2024-03-02T08:03:11;8.73;;;3.30;;
18302;SDS011;9277;37.980;23.748;2024-03-02T08:05:40;6.55;;;2.97;;
18302;SDS011;9277;37.980;23.748;2024-03-02T08:08:06;3.63;;;2.58;;
18302;SDS011;9277;37.980;23.748;2024-03-02T08:10:33;7.45;;;2.70;;
18302;SDS011;9277;37.980;23.748;2024-03-02T08:13:00;7.15;;;2.92;;
18302;SDS011;9277;37.980;23.748;2024-03-02T08:15:27;4.90;;;2.75;;
18302;SDS011;9277;37.980;23.748;2024-03-02T08:17:53;6.80;;;2.47;;
18302;SDS011;9277;37.980;23.748;2024-03-02T08:20:21;10.90;;;2.58;;
18302;SDS011;9277;37.980;23.748;2024-03-02T08:22:49;9.70;;;2.78;;
18302;SDS011;9277;37.980;23.748;2024-03-02T08:25:16;5.03;;;2.42;;
18302;SDS011;9277;37.980;23.748;2024-03-02T08:27:43;7.15;;;2.40;;
18302;SDS011;9277;37.980;23.748;2024-03-02T08:30:10;9.27;;;2.55;;
18302;SDS011;9277;37.980;23.748;2024-03-02T08:32:37;5.75;;;2.20;;
18302;SDS011;9277;37.980;23.748;2024-03-02T08:35:06;7.75;;;2.65;;
18302;SDS011;9277;37.980;23.748;2024-03-02T08:37:33;8.40;;;2.72;;
18302;SDS011;9277;37.980;23.748;2024-03-02T08:40:01;4.95;;;3.10;;
18302;SDS011;9277;37.980;23.748;2024-03-02T08:42:29;9.73;;;3.28;;
18302;SDS011;9277;37.980;23.748;2024-03-02T08:44:55;8.45;;;2.63;;
18302;SDS011;9277;37.980;23.748;2024-03-02T08:47:22;8.10;;;3.30;;
18302;SDS011;9277;37.980;23.748;2024-03-02T08:49:49;16.58;;;3.90;;
18302;SDS011;9277;37.980;23.748;2024-03-02T08:52:15;9.70;;;3.00;;
18302;SDS011;9277;37.980;23.748;2024-03-02T08:54:42;5.95;;;2.80;;
18302;SDS011;9277;37.980;23.748;2024-03-02T08:57:10;6.60;;;2.47;;
18302;SDS011;9277;37.980;23.748;2024-03-02T08:59:37;6.90;;;2.42;;
18302;SDS011;9277;37.980;23.748;2024-03-02T09:02:03;6.68;;;2.88;;
18302;SDS011;9277;37.980;23.748;2024-03-02T09:04:30;14.15;;;2.80;;
18302;SDS011;9277;37.980;23.748;2024-03-02T09:06:57;10.05;;;3.53;;
18302;SDS011;9277;37.980;23.748;2024-03-02T09:09:24;7.22;;;3.30;;
18302;SDS011;9277;37.980;23.748;2024-03-02T09:11:50;14.88;;;3.40;;
18302;SDS011;9277;37.980;23.748;2024-03-02T09:14:21;6.53;;;3.28;;
18302;SDS011;9277;37.980;23.748;2024-03-02T09:16:48;9.43;;;3.85;;
18302;SDS011;9277;37.980;23.748;2024-03-02T09:19:15;11.63;;;4.40;;
18302;SDS011;9277;37.980;23.748;2024-03-02T09:21:42;19.50;;;4.32;;
18302;SDS011;9277;37.980;23.748;2024-03-02T09:24:09;13.70;;;3.83;;
18302;SDS011;9277;37.980;23.748;2024-03-02T09:26:36;13.93;;;4.18;;
18302;SDS011;9277;37.980;23.748;2024-03-02T09:29:02;14.07;;;4.43;;
18302;SDS011;9277;37.980;23.748;2024-03-02T09:31:31;12.40;;;4.50;;
18302;SDS011;9277;37.980;23.748;2024-03-02T09:33:56;13.27;;;3.38;;
18302;SDS011;9277;37.980;23.748;2024-03-02T09:36:23;7.47;;;3.97;;
18302;SDS011;9277;37.980;23.748;2024-03-02T09:38:50;12.68;;;6.20;;
18302;SDS011;9277;37.980;23.748;2024-03-02T09:41:16;13.43;;;4.60;;
18302;SDS011;9277;37.980;23.748;2024-03-02T09:43:43;13.45;;;5.10;;
18302;SDS011;9277;37.980;23.748;2024-03-02T09:46:10;7.38;;;4.00;;
18302;SDS011;9277;37.980;23.748;2024-03-02T09:48:38;11.77;;;3.67;;
18302;SDS011;9277;37.980;23.748;2024-03-02T09:51:05;10.35;;;3.72;;
18302;SDS011;9277;37.980;23.748;2024-03-02T09:53:33;23.23;;;5.25;;
18302;SDS011;9277;37.980;23.748;2024-03-02T09:56:02;15.48;;;4.28;;
18302;SDS011;9277;37.980;23.748;2024-03-02T09:58:31;6.95;;;3.40;;
18302;SDS011;9277;37.980;23.748;2024-03-02T10:00:57;12.98;;;5.05;;
18302;SDS011;9277;37.980;23.748;2024-03-02T10:03:24;10.02;;;4.03;;
18302;SDS011;9277;37.980;23.748;2024-03-02T10:05:52;9.60;;;4.03;;
18302;SDS011;9277;37.980;23.748;2024-03-02T10:08:19;8.48;;;3.85;;
18302;SDS011;9277;37.980;23.748;2024-03-02T10:10:46;13.55;;;3.60;;
18302;SDS011;9277;37.980;23.748;2024-03-02T10:13:12;10.27;;;3.47;;
18302;SDS011;9277;37.980;23.748;2024-03-02T10:15:40;5.10;;;3.05;;
18302;SDS011;9277;37.980;23.748;2024-03-02T10:18:08;12.98;;;3.75;;
18302;SDS011;9277;37.980;23.748;2024-03-02T10:20:35;9.85;;;3.70;;
18302;SDS011;9277;37.980;23.748;2024-03-02T10:23:12;9.30;;;3.72;;
18302;SDS011;9277;37.980;23.748;2024-03-02T10:25:39;14.05;;;3.65;;
18302;SDS011;9277;37.980;23.748;2024-03-02T10:28:06;9.32;;;3.80;;
18302;SDS011;9277;37.980;23.748;2024-03-02T10:30:40;9.73;;;4.10;;
18302;SDS011;9277;37.980;23.748;2024-03-02T10:33:07;9.00;;;4.07;;
18302;SDS011;9277;37.980;23.748;2024-03-02T10:35:34;10.52;;;3.80;;
18302;SDS011;9277;37.980;23.748;2024-03-02T10:38:03;19.02;;;5.10;;
18302;SDS011;9277;37.980;23.748;2024-03-02T10:40:33;14.80;;;4.93;;
18302;SDS011;9277;37.980;23.748;2024-03-02T10:43:00;13.40;;;3.72;;
18302;SDS011;9277;37.980;23.748;2024-03-02T10:45:28;10.23;;;4.65;;
18302;SDS011;9277;37.980;23.748;2024-03-02T10:47:55;11.50;;;4.32;;
18302;SDS011;9277;37.980;23.748;2024-03-02T10:50:22;13.38;;;4.22;;
18302;SDS011;9277;37.980;23.748;2024-03-02T10:52:50;13.60;;;3.75;;
18302;SDS011;9277;37.980;23.748;2024-03-02T10:55:17;10.25;;;4.15;;
18302;SDS011;9277;37.980;23.748;2024-03-02T10:57:49;9.40;;;4.38;;
18302;SDS011;9277;37.980;23.748;2024-03-02T11:00:17;14.43;;;5.03;;
18302;SDS011;9277;37.980;23.748;2024-03-02T11:02:50;20.10;;;3.92;;
18302;SDS011;9277;37.980;23.748;2024-03-02T11:05:19;12.55;;;5.13;;
18302;SDS011;9277;37.980;23.748;2024-03-02T11:07:50;15.40;;;4.43;;
18302;SDS011;9277;37.980;23.748;2024-03-02T11:10:18;13.50;;;4.13;;
18302;SDS011;9277;37.980;23.748;2024-03-02T11:12:48;14.02;;;4.40;;
18302;SDS011;9277;37.980;23.748;2024-03-02T11:15:18;12.90;;;3.92;;
18302;SDS011;9277;37.980;23.748;2024-03-02T11:17:45;10.25;;;3.95;;
18302;SDS011;9277;37.980;23.748;2024-03-02T11:20:13;12.02;;;4.28;;
18302;SDS011;9277;37.980;23.748;2024-03-02T11:22:40;11.80;;;3.45;;
18302;SDS011;9277;37.980;23.748;2024-03-02T11:25:08;8.05;;;3.10;;
18302;SDS011;9277;37.980;23.748;2024-03-02T11:28:06;10.57;;;3.55;;
18302;SDS011;9277;37.980;23.748;2024-03-02T11:30:52;14.80;;;4.05;;
18302;SDS011;9277;37.980;23.748;2024-03-02T11:33:23;13.50;;;3.78;;
18302;SDS011;9277;37.980;23.748;2024-03-02T11:35:49;12.60;;;3.10;;
18302;SDS011;9277;37.980;23.748;2024-03-02T11:38:16;15.43;;;3.35;;
18302;SDS011;9277;37.980;23.748;2024-03-02T11:40:44;4.57;;;2.75;;
18302;SDS011;9277;37.980;23.748;2024-03-02T11:43:12;12.68;;;3.58;;
18302;SDS011;9277;37.980;23.748;2024-03-02T11:45:39;14.60;;;2.63;;
18302;SDS011;9277;37.980;23.748;2024-03-02T11:48:09;18.08;;;3.38;;
18302;SDS011;9277;37.980;23.748;2024-03-02T11:50:40;12.27;;;3.33;;
18302;SDS011;9277;37.980;23.748;2024-03-02T11:53:07;10.60;;;3.22;;
18302;SDS011;9277;37.980;23.748;2024-03-02T11:55:34;9.68;;;3.20;;
18302;SDS011;9277;37.980;23.748;2024-03-02T11:58:01;6.65;;;2.70;;
18302;SDS011;9277;37.980;23.748;2024-03-02T12:00:30;16.27;;;3.42;;
18302;SDS011;9277;37.980;23.748;2024-03-02T12:02:59;13.57;;;3.58;;
18302;SDS011;9277;37.980;23.748;2024-03-02T12:05:27;16.58;;;4.05;;
18302;SDS011;9277;37.980;23.748;2024-03-02T12:07:55;12.00;;;3.15;;
18302;SDS011;9277;37.980;23.748;2024-03-02T12:10:22;13.23;;;3.38;;
18302;SDS011;9277;37.980;23.748;2024-03-02T12:12:54;7.85;;;2.80;;
18302;SDS011;9277;37.980;23.748;2024-03-02T12:15:22;13.52;;;3.70;;
18302;SDS011;9277;37.980;23.748;2024-03-02T12:17:53;13.43;;;3.92;;
18302;SDS011;9277;37.980;23.748;2024-03-02T12:20:20;11.85;;;3.80;;
18302;SDS011;9277;37.980;23.748;2024-03-02T12:22:48;9.85;;;2.88;;
18302;SDS011;9277;37.980;23.748;2024-03-02T12:25:15;13.80;;;2.80;;
18302;SDS011;9277;37.980;23.748;2024-03-02T12:27:42;13.05;;;3.78;;
18302;SDS011;9277;37.980;23.748;2024-03-02T12:30:11;13.73;;;3.75;;
18302;SDS011;9277;37.980;23.748;2024-03-02T12:32:39;15.27;;;3.67;;
18302;SDS011;9277;37.980;23.748;2024-03-02T12:35:07;15.57;;;4.57;;
18302;SDS011;9277;37.980;23.748;2024-03-02T12:37:41;18.92;;;3.60;;
18302;SDS011;9277;37.980;23.748;2024-03-02T12:40:09;12.45;;;2.75;;
18302;SDS011;9277;37.980;23.748;2024-03-02T12:42:36;16.92;;;3.88;;
18302;SDS011;9277;37.980;23.748;2024-03-02T12:45:03;15.45;;;3.75;;
18302;SDS011;9277;37.980;23.748;2024-03-02T12:47:30;20.73;;;3.88;;
18302;SDS011;9277;37.980;23.748;2024-03-02T12:49:57;15.50;;;3.60;;
18302;SDS011;9277;37.980;23.748;2024-03-02T12:52:26;13.70;;;3.00;;
18302;SDS011;9277;37.980;23.748;2024-03-02T12:54:53;14.00;;;3.53;;
18302;SDS011;9277;37.980;23.748;2024-03-02T12:57:25;8.52;;;2.58;;
18302;SDS011;9277;37.980;23.748;2024-03-02T12:59:52;13.38;;;2.75;;
18302;SDS011;9277;37.980;23.748;2024-03-02T13:02:19;13.27;;;2.92;;
18302;SDS011;9277;37.980;23.748;2024-03-02T13:04:52;11.20;;;2.83;;
18302;SDS011;9277;37.980;23.748;2024-03-02T13:07:19;12.27;;;2.72;;
18302;SDS011;9277;37.980;23.748;2024-03-02T13:09:49;11.90;;;2.90;;
18302;SDS011;9277;37.980;23.748;2024-03-02T13:12:15;10.38;;;2.38;;
18302;SDS011;9277;37.980;23.748;2024-03-02T13:14:42;9.57;;;3.42;;
18302;SDS011;9277;37.980;23.748;2024-03-02T13:17:09;14.48;;;3.45;;
18302;SDS011;9277;37.980;23.748;2024-03-02T13:19:36;19.20;;;3.67;;
18302;SDS011;9277;37.980;23.748;2024-03-02T13:22:06;17.80;;;2.38;;
18302;SDS011;9277;37.980;23.748;2024-03-02T13:24:32;7.75;;;2.42;;
18302;SDS011;9277;37.980;23.748;2024-03-02T13:27:01;15.15;;;3.30;;
18302;SDS011;9277;37.980;23.748;2024-03-02T13:29:29;13.50;;;2.70;;
18302;SDS011;9277;37.980;23.748;2024-03-02T13:31:58;18.25;;;3.70;;
18302;SDS011;9277;37.980;23.748;2024-03-02T13:34:28;15.20;;;4.28;;
18302;SDS011;9277;37.980;23.748;2024-03-02T13:36:55;11.60;;;3.05;;
18302;SDS011;9277;37.980;23.748;2024-03-02T13:39:21;23.83;;;3.88;;
18302;SDS011;9277;37.980;23.748;2024-03-02T13:41:48;17.75;;;3.88;;
18302;SDS011;9277;37.980;23.748;2024-03-02T13:47:05;25.65;;;4.50;;
18302;SDS011;9277;37.980;23.748;2024-03-02T13:49:32;13.50;;;3.15;;
18302;SDS011;9277;37.980;23.748;2024-03-02T13:52:03;14.45;;;3.75;;
18302;SDS011;9277;37.980;23.748;2024-03-02T13:54:39;11.35;;;3.53;;
18302;SDS011;9277;37.980;23.748;2024-03-02T13:57:06;11.35;;;2.75;;
18302;SDS011;9277;37.980;23.748;2024-03-02T13:59:33;16.60;;;2.80;;
18302;SDS011;9277;37.980;23.748;2024-03-02T14:02:00;18.83;;;3.80;;
18302;SDS011;9277;37.980;23.748;2024-03-02T14:04:30;12.40;;;2.30;;
18302;SDS011;9277;37.980;23.748;2024-03-02T14:06:58;15.32;;;2.75;;
18302;SDS011;9277;37.980;23.748;2024-03-02T14:09:25;13.43;;;3.10;;
18302;SDS011;9277;37.980;23.748;2024-03-02T14:11:52;10.10;;;2.75;;
18302;SDS011;9277;37.980;23.748;2024-03-02T14:14:19;9.93;;;2.05;;
18302;SDS011;9277;37.980;23.748;2024-03-02T14:16:45;14.13;;;2.60;;
18302;SDS011;9277;37.980;23.748;2024-03-02T14:19:12;11.02;;;2.65;;
18302;SDS011;9277;37.980;23.748;2024-03-02T14:21:40;12.80;;;2.28;;
18302;SDS011;9277;37.980;23.748;2024-03-02T14:24:10;12.07;;;2.58;;
18302;SDS011;9277;37.980;23.748;2024-03-02T14:26:36;14.18;;;2.55;;
18302;SDS011;9277;37.980;23.748;2024-03-02T14:29:04;15.93;;;2.72;;
18302;SDS011;9277;37.980;23.748;2024-03-02T14:31:30;24.88;;;2.58;;
18302;SDS011;9277;37.980;23.748;2024-03-02T14:33:57;16.65;;;2.78;;
18302;SDS011;9277;37.980;23.748;2024-03-02T14:36:24;11.30;;;2.45;;
18302;SDS011;9277;37.980;23.748;2024-03-02T14:38:54;17.60;;;2.47;;
18302;SDS011;9277;37.980;23.748;2024-03-02T14:41:21;11.77;;;2.75;;
18302;SDS011;9277;37.980;23.748;2024-03-02T14:43:49;22.42;;;2.90;;
18302;SDS011;9277;37.980;23.748;2024-03-02T14:46:16;15.68;;;3.15;;